createdAt,value
2016-12-19T00:00:48.678Z,976.59
2016-12-19T00:01:48.634Z,976.67
2016-12-19T00:02:48.592Z,976.52
2016-12-19T00:03:48.551Z,976.57
2016-12-19T00:04:48.509Z,976.47
2016-12-19T00:05:48.464Z,976.54
2016-12-19T00:06:48.423Z,976.54
2016-12-19T00:07:48.381Z,976.58
2016-12-19T00:08:48.338Z,976.69
2016-12-19T00:09:48.296Z,976.57
2016-12-19T00:10:48.254Z,976.53
2016-12-19T00:11:48.212Z,976.57
2016-12-19T00:12:48.169Z,976.55
2016-12-19T00:13:48.128Z,976.55
2016-12-19T00:14:48.084Z,976.54
2016-12-19T00:15:48.044Z,976.51
2016-12-19T00:16:48.001Z,976.5
2016-12-19T00:17:47.969Z,976.55
2016-12-19T00:18:47.923Z,976.54
2016-12-19T00:19:47.873Z,976.49
2016-12-19T00:20:47.833Z,976.5
2016-12-19T00:21:47.790Z,976.47
2016-12-19T00:22:47.748Z,976.47
2016-12-19T00:23:47.705Z,976.43
2016-12-19T00:24:47.662Z,976.39
2016-12-19T00:25:47.620Z,976.34
2016-12-19T00:26:47.577Z,976.37
2016-12-19T00:27:47.538Z,976.31
2016-12-19T00:28:47.494Z,976.31
2016-12-19T00:29:47.452Z,976.37
2016-12-19T00:30:47.410Z,976.36
2016-12-19T00:31:47.367Z,976.3
2016-12-19T00:32:47.329Z,976.35
2016-12-19T00:33:47.286Z,976.24
2016-12-19T00:34:47.240Z,976.27
2016-12-19T00:35:47.198Z,976.22
2016-12-19T00:36:47.155Z,976.22
2016-12-19T00:37:47.111Z,976.25
2016-12-19T00:38:47.071Z,976.26
2016-12-19T00:39:47.029Z,976.31
2016-12-19T00:40:46.987Z,976.25
2016-12-19T00:41:46.945Z,976.26
2016-12-19T00:42:46.906Z,976.32
2016-12-19T00:43:46.860Z,976.29
2016-12-19T00:44:46.820Z,976.28
2016-12-19T00:45:46.774Z,976.3
2016-12-19T00:46:46.732Z,976.29
2016-12-19T00:47:46.691Z,976.33
2016-12-19T00:48:46.650Z,976.28
2016-12-19T00:49:46.606Z,976.21
2016-12-19T00:50:46.563Z,976.2
2016-12-19T00:51:46.522Z,976.19
2016-12-19T00:52:46.478Z,976.22
2016-12-19T00:53:46.437Z,976.15
2016-12-19T00:54:46.394Z,976.14
2016-12-19T00:55:46.352Z,976.09
2016-12-19T00:56:46.309Z,976.16
2016-12-19T00:57:46.267Z,976.15
2016-12-19T00:58:46.225Z,976.16
2016-12-19T00:59:46.182Z,976.11
2016-12-19T01:00:46.139Z,976.13
2016-12-19T01:01:46.096Z,976.01
2016-12-19T01:02:46.056Z,976
2016-12-19T01:03:46.012Z,975.99
2016-12-19T01:04:45.970Z,976.04
2016-12-19T01:05:45.927Z,976.03
2016-12-19T01:06:45.886Z,975.94
2016-12-19T01:07:45.842Z,976.03
2016-12-19T01:08:45.802Z,976.04
2016-12-19T01:09:45.758Z,976
2016-12-19T01:10:45.715Z,975.98
2016-12-19T01:11:45.673Z,975.92
2016-12-19T01:12:45.631Z,975.93
2016-12-19T01:13:45.588Z,975.97
2016-12-19T01:14:45.547Z,975.93
2016-12-19T01:15:45.503Z,975.98
2016-12-19T01:16:45.462Z,975.97
2016-12-19T01:17:45.419Z,975.95
2016-12-19T01:18:45.376Z,975.89
2016-12-19T01:19:45.334Z,975.9
2016-12-19T01:20:45.292Z,975.95
2016-12-19T01:21:45.248Z,975.98
2016-12-19T01:22:45.208Z,975.89
2016-12-19T01:23:45.165Z,975.87
2016-12-19T01:24:45.121Z,975.94
2016-12-19T01:25:45.080Z,975.94
2016-12-19T01:26:45.037Z,975.89
2016-12-19T01:27:44.995Z,975.85
2016-12-19T01:28:44.952Z,975.77
2016-12-19T01:29:44.909Z,975.86
2016-12-19T01:30:44.873Z,975.84
2016-12-19T01:31:44.825Z,975.83
2016-12-19T01:32:44.781Z,975.79
2016-12-19T01:33:44.740Z,975.85
2016-12-19T01:34:44.698Z,975.79
2016-12-19T01:35:44.656Z,975.83
2016-12-19T01:36:44.613Z,975.74
2016-12-19T01:37:44.570Z,975.74
2016-12-19T01:38:44.530Z,975.75
2016-12-19T01:39:44.486Z,975.75
2016-12-19T01:40:44.443Z,975.73
2016-12-19T01:41:44.401Z,975.8
2016-12-19T01:42:44.360Z,975.66
2016-12-19T01:43:44.315Z,975.77
2016-12-19T01:44:44.273Z,975.76
2016-12-19T01:45:44.233Z,975.66
2016-12-19T01:46:44.190Z,975.63
2016-12-19T01:47:44.146Z,975.62
2016-12-19T01:48:44.103Z,975.59
2016-12-19T01:49:44.061Z,975.57
2016-12-19T01:50:44.017Z,975.59
2016-12-19T01:51:43.976Z,975.51
2016-12-19T01:52:43.934Z,975.51
2016-12-19T01:53:43.891Z,975.57
2016-12-19T01:54:43.848Z,975.53
2016-12-19T01:55:43.807Z,975.5
2016-12-19T01:56:43.764Z,975.53
2016-12-19T01:57:43.721Z,975.48
2016-12-19T01:58:43.680Z,975.46
2016-12-19T01:59:43.637Z,975.52
2016-12-19T02:00:43.595Z,975.45
2016-12-19T02:01:43.554Z,975.45
2016-12-19T02:02:43.511Z,975.35
2016-12-19T02:03:43.469Z,975.42
2016-12-19T02:04:43.426Z,975.31
2016-12-19T02:05:43.381Z,975.32
2016-12-19T02:06:43.341Z,975.39
2016-12-19T02:07:43.298Z,975.29
2016-12-19T02:08:43.255Z,975.29
2016-12-19T02:09:43.213Z,975.41
2016-12-19T02:10:43.171Z,975.3
2016-12-19T02:11:43.128Z,975.24
2016-12-19T02:12:43.089Z,975.24
2016-12-19T02:13:43.042Z,975.27
2016-12-19T02:14:42.996Z,975.21
2016-12-19T02:15:42.958Z,975.24
2016-12-19T02:16:42.915Z,975.13
2016-12-19T02:17:42.874Z,975.06
2016-12-19T02:18:42.832Z,975.14
2016-12-19T02:19:42.789Z,975.1
2016-12-19T02:20:42.746Z,975.04
2016-12-19T02:21:42.702Z,975.02
2016-12-19T02:22:42.666Z,974.98
2016-12-19T02:23:42.618Z,974.99
2016-12-19T02:24:42.576Z,974.99
2016-12-19T02:25:42.533Z,974.93
2016-12-19T02:26:42.490Z,975.08
2016-12-19T02:27:42.448Z,974.98
2016-12-19T02:28:42.405Z,974.99
2016-12-19T02:29:42.363Z,975
2016-12-19T02:30:42.320Z,974.98
2016-12-19T02:31:42.279Z,975
2016-12-19T02:32:42.235Z,975
2016-12-19T02:33:42.192Z,974.98
2016-12-19T02:34:42.151Z,975
2016-12-19T02:35:42.107Z,974.96
2016-12-19T02:36:42.067Z,975
2016-12-19T02:37:42.024Z,975.02
2016-12-19T02:38:41.981Z,975
2016-12-19T02:39:41.936Z,975.04
2016-12-19T02:40:41.896Z,975.1
2016-12-19T02:41:41.853Z,975.01
2016-12-19T02:42:41.810Z,975.1
2016-12-19T02:43:41.768Z,975.01
2016-12-19T02:44:41.725Z,975
2016-12-19T02:45:41.683Z,974.99
2016-12-19T02:46:41.640Z,974.92
2016-12-19T02:47:41.598Z,974.96
2016-12-19T02:48:41.563Z,974.96
2016-12-19T02:49:41.513Z,974.98
2016-12-19T02:50:41.471Z,974.89
2016-12-19T02:51:41.428Z,975.02
2016-12-19T02:52:41.387Z,974.91
2016-12-19T02:53:41.343Z,974.89
2016-12-19T02:54:41.303Z,974.92
2016-12-19T02:55:41.258Z,974.91
2016-12-19T02:56:41.215Z,974.9
2016-12-19T02:57:41.172Z,974.92
2016-12-19T02:58:41.130Z,974.87
2016-12-19T02:59:41.092Z,974.85
2016-12-19T03:00:41.050Z,974.81
2016-12-19T03:01:41.002Z,974.85
2016-12-19T03:02:40.962Z,974.81
2016-12-19T03:03:40.918Z,974.78
2016-12-19T03:04:40.875Z,974.69
2016-12-19T03:05:40.833Z,974.75
2016-12-19T03:06:40.791Z,974.65
2016-12-19T03:07:40.748Z,974.66
2016-12-19T03:08:40.705Z,974.59
2016-12-19T03:09:40.663Z,974.49
2016-12-19T03:10:40.619Z,974.56
2016-12-19T03:11:40.580Z,974.45
2016-12-19T03:12:40.534Z,974.57
2016-12-19T03:13:40.492Z,974.46
2016-12-19T03:14:40.454Z,974.51
2016-12-19T03:15:40.407Z,974.44
2016-12-19T03:16:40.362Z,974.44
2016-12-19T03:17:40.322Z,974.46
2016-12-19T03:18:40.277Z,974.38
2016-12-19T03:19:40.235Z,974.44
2016-12-19T03:20:40.194Z,974.36
2016-12-19T03:21:40.150Z,974.43
2016-12-19T03:22:40.108Z,974.37
2016-12-19T03:23:40.066Z,974.38
2016-12-19T03:24:40.022Z,974.44
2016-12-19T03:25:39.979Z,974.47
2016-12-19T03:26:39.938Z,974.32
2016-12-19T03:27:39.894Z,974.26
2016-12-19T03:28:39.853Z,974.24
2016-12-19T03:29:39.808Z,974.36
2016-12-19T03:30:39.767Z,974.34
2016-12-19T03:31:39.723Z,974.28
2016-12-19T03:32:39.680Z,974.32
2016-12-19T03:33:39.637Z,974.3
2016-12-19T03:34:39.596Z,974.24
2016-12-19T03:35:39.554Z,974.16
2016-12-19T03:36:39.510Z,974.15
2016-12-19T03:37:39.467Z,974.23
2016-12-19T03:38:39.426Z,974.21
2016-12-19T03:39:39.383Z,974.08
2016-12-19T03:40:39.340Z,974.06
2016-12-19T03:41:39.298Z,974.1
2016-12-19T03:42:39.253Z,974.07
2016-12-19T03:43:39.212Z,974.05
2016-12-19T03:44:39.168Z,974.08
2016-12-19T03:45:39.126Z,974.02
2016-12-19T03:46:39.083Z,974.03
2016-12-19T03:47:39.041Z,974.07
2016-12-19T03:48:38.998Z,973.96
2016-12-19T03:49:38.956Z,973.95
2016-12-19T03:50:38.914Z,974.02
2016-12-19T03:51:38.870Z,973.97
2016-12-19T03:52:38.829Z,974.06
2016-12-19T03:53:38.786Z,973.93
2016-12-19T03:54:38.746Z,973.95
2016-12-19T03:55:38.699Z,973.95
2016-12-19T03:56:38.656Z,973.89
2016-12-19T03:57:38.617Z,973.86
2016-12-19T03:58:38.575Z,973.8
2016-12-19T03:59:38.529Z,973.79
2016-12-19T04:00:38.487Z,973.76
2016-12-19T04:01:38.443Z,973.8
2016-12-19T04:02:38.401Z,973.75
2016-12-19T04:03:38.358Z,973.78
2016-12-19T04:04:38.315Z,973.73
2016-12-19T04:05:38.274Z,973.86
2016-12-19T04:06:38.230Z,973.78
2016-12-19T04:07:38.188Z,973.9
2016-12-19T04:08:38.146Z,973.75
2016-12-19T04:09:38.102Z,973.73
2016-12-19T04:10:38.060Z,973.72
2016-12-19T04:11:38.016Z,973.7
2016-12-19T04:12:37.976Z,973.71
2016-12-19T04:13:37.935Z,973.75
2016-12-19T04:14:37.888Z,973.73
2016-12-19T04:15:37.847Z,973.66
2016-12-19T04:16:37.804Z,973.71
2016-12-19T04:17:37.761Z,973.75
2016-12-19T04:18:37.719Z,973.73
2016-12-19T04:19:37.676Z,973.68
2016-12-19T04:20:37.634Z,973.65
2016-12-19T04:21:37.591Z,973.6
2016-12-19T04:22:37.548Z,973.66
2016-12-19T04:23:37.507Z,973.72
2016-12-19T04:24:37.463Z,973.63
2016-12-19T04:25:37.419Z,973.61
2016-12-19T04:26:37.378Z,973.56
2016-12-19T04:27:37.335Z,973.48
2016-12-19T04:28:37.290Z,973.57
2016-12-19T04:29:37.249Z,973.47
2016-12-19T04:30:37.209Z,973.43
2016-12-19T04:31:37.164Z,973.4
2016-12-19T04:32:37.121Z,973.43
2016-12-19T04:33:37.079Z,973.36
2016-12-19T04:34:37.035Z,973.34
2016-12-19T04:35:36.993Z,973.33
2016-12-19T04:36:36.952Z,973.34
2016-12-19T04:37:36.907Z,973.35
2016-12-19T04:38:36.867Z,973.34
2016-12-19T04:39:36.820Z,973.38
2016-12-19T04:40:36.780Z,973.39
2016-12-19T04:41:36.739Z,973.34
2016-12-19T04:42:36.693Z,973.35
2016-12-19T04:43:36.651Z,973.39
2016-12-19T04:44:36.609Z,973.33
2016-12-19T04:45:36.565Z,973.32
2016-12-19T04:46:36.524Z,973.26
2016-12-19T04:47:36.481Z,973.35
2016-12-19T04:48:36.438Z,973.32
2016-12-19T04:49:36.396Z,973.37
2016-12-19T04:50:36.353Z,973.24
2016-12-19T04:51:36.310Z,973.24
2016-12-19T04:52:36.268Z,973.24
2016-12-19T04:53:36.224Z,973.31
2016-12-19T04:54:36.181Z,973.26
2016-12-19T04:55:36.138Z,973.31
2016-12-19T04:56:36.095Z,973.33
2016-12-19T04:57:36.054Z,973.28
2016-12-19T04:58:36.011Z,973.3
2016-12-19T04:59:35.969Z,973.29
2016-12-19T05:00:35.926Z,973.33
2016-12-19T05:01:35.883Z,973.47
2016-12-19T05:02:35.839Z,973.29
2016-12-19T05:03:35.798Z,973.31
2016-12-19T05:04:35.753Z,973.32
2016-12-19T05:05:35.712Z,973.36
2016-12-19T05:06:35.668Z,973.33
2016-12-19T05:07:35.626Z,973.39
2016-12-19T05:08:35.584Z,973.43
2016-12-19T05:09:35.542Z,973.43
2016-12-19T05:10:35.497Z,973.39
2016-12-19T05:11:35.455Z,973.42
2016-12-19T05:12:35.413Z,973.34
2016-12-19T05:13:35.370Z,973.42
2016-12-19T05:14:35.328Z,973.44
2016-12-19T05:15:35.284Z,973.42
2016-12-19T05:16:35.243Z,973.45
2016-12-19T05:17:35.200Z,973.31
2016-12-19T05:18:35.157Z,973.44
2016-12-19T05:19:35.113Z,973.5
2016-12-19T05:20:35.072Z,973.48
2016-12-19T05:21:35.030Z,973.39
2016-12-19T05:22:34.985Z,973.44
2016-12-19T05:23:34.942Z,973.47
2016-12-19T05:24:34.901Z,973.46
2016-12-19T05:25:34.858Z,973.45
2016-12-19T05:26:34.814Z,973.46
2016-12-19T05:27:34.773Z,973.45
2016-12-19T05:28:34.730Z,973.37
2016-12-19T05:29:34.688Z,973.48
2016-12-19T05:30:34.646Z,973.34
2016-12-19T05:31:34.602Z,973.3
2016-12-19T05:32:34.562Z,973.54
2016-12-19T05:33:34.517Z,973.27
2016-12-19T05:34:34.473Z,973.26
2016-12-19T05:35:34.431Z,973.22
2016-12-19T05:36:34.389Z,973.22
2016-12-19T05:37:34.347Z,973.24
2016-12-19T05:38:34.306Z,973.26
2016-12-19T05:39:34.261Z,973.21
2016-12-19T05:40:34.219Z,973.22
2016-12-19T05:41:34.174Z,973.26
2016-12-19T05:42:34.133Z,973.23
2016-12-19T05:43:34.090Z,973.2
2016-12-19T05:44:34.048Z,973.11
2016-12-19T05:45:34.003Z,973.16
2016-12-19T05:46:33.962Z,973.2
2016-12-19T05:47:33.922Z,973.11
2016-12-19T05:48:33.877Z,973.1
2016-12-19T05:49:33.834Z,973.11
2016-12-19T05:50:33.791Z,973.11
2016-12-19T05:51:33.749Z,973.01
2016-12-19T05:52:33.706Z,973.03
2016-12-19T05:53:33.663Z,972.95
2016-12-19T05:54:33.621Z,972.91
2016-12-19T05:55:33.578Z,972.94
2016-12-19T05:56:33.535Z,972.9
2016-12-19T05:57:33.492Z,972.7
2016-12-19T05:58:33.453Z,972.7
2016-12-19T05:59:33.408Z,972.59
2016-12-19T06:00:33.365Z,972.41
2016-12-19T06:01:33.322Z,972.37
2016-12-19T06:02:33.279Z,972.33
2016-12-19T06:03:33.236Z,972.28
2016-12-19T06:04:33.194Z,972.39
2016-12-19T06:05:33.150Z,972.48
2016-12-19T06:06:33.108Z,972.42
2016-12-19T06:07:33.066Z,972.46
2016-12-19T06:08:33.024Z,972.64
2016-12-19T06:09:32.980Z,972.58
2016-12-19T06:10:32.936Z,972.6
2016-12-19T06:11:32.897Z,972.61
2016-12-19T06:12:32.853Z,972.7
2016-12-19T06:13:32.808Z,972.62
2016-12-19T06:14:32.765Z,972.64
2016-12-19T06:15:32.724Z,972.64
2016-12-19T06:16:32.680Z,972.53
2016-12-19T06:17:32.638Z,972.57
2016-12-19T06:18:32.595Z,972.58
2016-12-19T06:19:32.556Z,972.78
2016-12-19T06:20:32.509Z,972.56
2016-12-19T06:21:32.465Z,972.65
2016-12-19T06:22:32.423Z,972.56
2016-12-19T06:23:32.380Z,972.48
2016-12-19T06:24:32.339Z,972.43
2016-12-19T06:25:32.295Z,972.47
2016-12-19T06:26:32.249Z,972.49
2016-12-19T06:27:32.209Z,972.4
2016-12-19T06:28:32.165Z,972.51
2016-12-19T06:29:32.123Z,972.18
2016-12-19T06:30:32.081Z,972.39
2016-12-19T06:31:32.038Z,972.36
2016-12-19T06:32:31.994Z,972.35
2016-12-19T06:33:31.950Z,972.46
2016-12-19T06:34:31.910Z,972.4
2016-12-19T06:35:31.875Z,972.52
2016-12-19T06:36:31.822Z,972.42
2016-12-19T06:37:31.779Z,972.56
2016-12-19T06:38:31.735Z,972.49
2016-12-19T06:39:31.693Z,972.49
2016-12-19T06:40:31.650Z,972.56
2016-12-19T06:41:31.609Z,972.5
2016-12-19T06:42:31.566Z,972.51
2016-12-19T06:43:31.523Z,972.5
2016-12-19T06:44:31.478Z,972.43
2016-12-19T06:45:31.436Z,972.5
2016-12-19T06:46:31.397Z,972.47
2016-12-19T06:47:31.352Z,972.43
2016-12-19T06:48:31.306Z,972.45
2016-12-19T06:49:31.265Z,972.57
2016-12-19T06:50:31.221Z,972.36
2016-12-19T06:51:31.180Z,972.36
2016-12-19T06:52:31.137Z,972.5
2016-12-19T06:53:31.093Z,972.52
2016-12-19T06:54:31.051Z,972.39
2016-12-19T06:55:31.006Z,972.46
2016-12-19T06:56:30.968Z,972.45
2016-12-19T06:57:30.920Z,972.47
2016-12-19T06:58:30.878Z,972.36
2016-12-19T06:59:30.834Z,972.42
2016-12-19T07:00:30.792Z,972.41
2016-12-19T07:01:30.747Z,972.36
2016-12-19T07:02:30.707Z,972.42
2016-12-19T07:03:30.662Z,972.35
2016-12-19T07:04:30.619Z,972.46
2016-12-19T07:05:30.576Z,972.5
2016-12-19T07:06:30.534Z,972.55
2016-12-19T07:07:30.491Z,972.65
2016-12-19T07:08:30.446Z,972.64
2016-12-19T07:09:30.405Z,972.48
2016-12-19T07:10:30.362Z,972.52
2016-12-19T07:11:30.318Z,972.45
2016-12-19T07:12:30.275Z,972.59
2016-12-19T07:13:30.232Z,972.56
2016-12-19T07:14:30.189Z,972.57
2016-12-19T07:15:30.146Z,972.57
2016-12-19T07:16:30.104Z,972.57
2016-12-19T07:17:30.061Z,972.56
2016-12-19T07:18:30.018Z,972.51
2016-12-19T07:19:29.975Z,972.54
2016-12-19T07:20:29.932Z,972.58
2016-12-19T07:21:29.888Z,972.53
2016-12-19T07:22:29.846Z,972.53
2016-12-19T07:23:29.804Z,972.56
2016-12-19T07:24:29.759Z,972.56
2016-12-19T07:25:29.717Z,972.57
2016-12-19T07:26:29.673Z,972.67
2016-12-19T07:27:29.631Z,972.55
2016-12-19T07:28:29.587Z,972.54
2016-12-19T07:29:29.546Z,972.5
2016-12-19T07:30:29.501Z,972.47
2016-12-19T07:31:29.458Z,972.48
2016-12-19T07:32:29.418Z,972.53
2016-12-19T07:33:29.373Z,972.59
2016-12-19T07:34:29.331Z,972.53
2016-12-19T07:35:29.289Z,972.57
2016-12-19T07:36:29.246Z,972.48
2016-12-19T07:37:29.204Z,972.4
2016-12-19T07:38:29.162Z,972.42
2016-12-19T07:39:29.120Z,972.39
2016-12-19T07:40:29.077Z,972.32
2016-12-19T07:41:29.032Z,972.55
2016-12-19T07:42:28.991Z,972.29
2016-12-19T07:43:28.951Z,972.37
2016-12-19T07:44:28.907Z,972.41
2016-12-19T07:45:28.865Z,972.41
2016-12-19T07:46:28.823Z,972.42
2016-12-19T07:47:28.781Z,972.44
2016-12-19T07:48:28.740Z,972.43
2016-12-19T07:49:28.697Z,972.46
2016-12-19T07:50:28.656Z,972.48
2016-12-19T07:51:28.614Z,972.44
2016-12-19T07:52:28.572Z,972.53
2016-12-19T07:53:28.529Z,972.62
2016-12-19T07:54:28.489Z,972.51
2016-12-19T07:55:28.448Z,972.51
2016-12-19T07:56:28.406Z,972.43
2016-12-19T07:57:28.365Z,972.48
2016-12-19T07:58:28.323Z,972.53
2016-12-19T07:59:28.283Z,972.64
2016-12-19T08:00:28.239Z,972.65
2016-12-19T08:01:28.198Z,972.52
2016-12-19T08:02:28.156Z,972.5
2016-12-19T08:03:28.114Z,972.42
2016-12-19T08:04:28.073Z,972.48
2016-12-19T08:05:28.032Z,972.47
2016-12-19T08:06:27.991Z,972.57
2016-12-19T08:07:27.949Z,972.5
2016-12-19T08:08:27.907Z,972.51
2016-12-19T08:09:27.867Z,972.44
2016-12-19T08:10:27.825Z,972.5
2016-12-19T08:11:27.787Z,972.56
2016-12-19T08:12:27.742Z,972.48
2016-12-19T08:13:27.702Z,972.48
2016-12-19T08:14:27.660Z,972.34
2016-12-19T08:15:27.620Z,972.37
2016-12-19T08:16:27.581Z,972.32
2016-12-19T08:17:27.539Z,972.39
2016-12-19T08:18:27.498Z,972.37
2016-12-19T08:19:27.458Z,972.45
2016-12-19T08:20:27.418Z,972.33
2016-12-19T08:21:27.377Z,972.38
2016-12-19T08:22:27.338Z,972.43
2016-12-19T08:23:27.298Z,972.28
2016-12-19T08:24:27.258Z,972.34
2016-12-19T08:25:27.217Z,972.38
2016-12-19T08:26:27.179Z,972.34
2016-12-19T08:27:27.140Z,972.51
2016-12-19T08:28:27.101Z,972.39
2016-12-19T08:29:27.061Z,972.37
2016-12-19T08:30:27.025Z,972.32
2016-12-19T08:31:26.983Z,972.39
2016-12-19T08:32:26.943Z,972.36
2016-12-19T08:33:26.907Z,972.44
2016-12-19T08:34:26.869Z,972.42
2016-12-19T08:35:26.829Z,972.48
2016-12-19T08:36:26.789Z,972.39
2016-12-19T08:37:26.751Z,972.34
2016-12-19T08:38:26.713Z,972.36
2016-12-19T08:39:26.675Z,972.22
2016-12-19T08:40:26.636Z,972.33
2016-12-19T08:41:26.597Z,972.27
2016-12-19T08:42:26.559Z,972.22
2016-12-19T08:43:26.520Z,972.33
2016-12-19T08:44:26.482Z,972.28
2016-12-19T08:45:26.444Z,972.22
2016-12-19T08:46:26.405Z,972.31
2016-12-19T08:47:26.367Z,972.28
2016-12-19T08:48:26.329Z,972.28
2016-12-19T08:49:26.289Z,972.23
2016-12-19T08:50:26.251Z,972.4
2016-12-19T08:51:26.212Z,972.4
2016-12-19T08:52:26.173Z,972.22
2016-12-19T08:53:26.135Z,972.21
2016-12-19T08:54:26.094Z,972.22
2016-12-19T08:55:26.056Z,972.25
2016-12-19T08:56:26.018Z,972.25
2016-12-19T08:57:25.978Z,972.3
2016-12-19T08:58:25.938Z,972.25
2016-12-19T08:59:25.899Z,972.51
2016-12-19T09:00:25.861Z,972.36
2016-12-19T09:01:25.823Z,972.41
2016-12-19T09:02:25.783Z,972.51
2016-12-19T09:03:25.746Z,972.39
2016-12-19T09:04:25.707Z,972.5
2016-12-19T09:05:25.669Z,972.56
2016-12-19T09:06:25.631Z,972.47
2016-12-19T09:07:25.593Z,972.41
2016-12-19T09:08:25.557Z,972.47
2016-12-19T09:09:25.520Z,972.46
2016-12-19T09:10:25.482Z,972.4
2016-12-19T09:11:25.446Z,972.47
2016-12-19T09:12:25.409Z,972.54
2016-12-19T09:13:25.371Z,972.69
2016-12-19T09:14:25.336Z,972.6
2016-12-19T09:15:25.303Z,972.59
2016-12-19T09:16:25.263Z,972.63
2016-12-19T09:17:25.228Z,972.61
2016-12-19T09:18:25.193Z,972.65
2016-12-19T09:19:25.158Z,972.61
2016-12-19T09:20:25.120Z,972.53
2016-12-19T09:21:25.088Z,972.63
2016-12-19T09:22:25.051Z,972.61
2016-12-19T09:23:25.016Z,972.65
2016-12-19T09:24:24.978Z,972.72
2016-12-19T09:25:24.942Z,972.7
2016-12-19T09:26:24.907Z,972.75
2016-12-19T09:27:24.870Z,972.77
2016-12-19T09:28:24.835Z,972.78
2016-12-19T09:29:24.801Z,972.76
2016-12-19T09:30:24.763Z,972.74
2016-12-19T09:31:24.725Z,972.75
2016-12-19T09:32:24.689Z,972.76
2016-12-19T09:33:24.655Z,972.86
2016-12-19T09:34:24.622Z,972.74
2016-12-19T09:35:24.583Z,972.78
2016-12-19T09:36:24.550Z,972.7
2016-12-19T09:37:24.511Z,972.71
2016-12-19T09:38:24.476Z,972.59
2016-12-19T09:39:24.443Z,972.6
2016-12-19T09:40:24.405Z,972.63
2016-12-19T09:41:24.369Z,972.59
2016-12-19T09:42:24.333Z,972.58
2016-12-19T09:43:24.297Z,972.6
2016-12-19T09:44:24.261Z,972.65
2016-12-19T09:45:24.226Z,972.63
2016-12-19T09:46:24.188Z,972.61
2016-12-19T09:47:24.153Z,972.62
2016-12-19T09:48:24.118Z,972.6
2016-12-19T09:49:24.080Z,972.57
2016-12-19T09:50:24.041Z,972.6
2016-12-19T09:51:24.008Z,972.66
2016-12-19T09:52:23.971Z,972.7
2016-12-19T09:53:23.934Z,972.64
2016-12-19T09:54:23.898Z,972.7
2016-12-19T09:55:23.861Z,972.69
2016-12-19T09:56:23.826Z,972.72
2016-12-19T09:57:23.789Z,972.69
2016-12-19T09:58:23.752Z,972.6
2016-12-19T09:59:23.717Z,972.57
2016-12-19T10:00:23.679Z,972.48
2016-12-19T10:01:23.643Z,972.52
2016-12-19T10:02:23.608Z,972.47
2016-12-19T10:03:23.572Z,972.51
2016-12-19T10:04:23.533Z,972.47
2016-12-19T10:05:23.495Z,972.51
2016-12-19T10:06:23.458Z,972.43
2016-12-19T10:07:23.422Z,972.45
2016-12-19T10:08:23.383Z,972.44
2016-12-19T10:09:23.346Z,972.44
2016-12-19T10:10:23.309Z,972.36
2016-12-19T10:11:23.270Z,972.34
2016-12-19T10:12:23.231Z,972.33
2016-12-19T10:13:23.193Z,972.31
2016-12-19T10:14:23.155Z,972.28
2016-12-19T10:15:23.116Z,972.33
2016-12-19T10:16:23.080Z,972.33
2016-12-19T10:17:23.040Z,972.44
2016-12-19T10:18:23.001Z,972.38
2016-12-19T10:19:22.963Z,972.35
2016-12-19T10:20:22.924Z,972.33
2016-12-19T10:21:22.887Z,972.36
2016-12-19T10:22:22.851Z,972.31
2016-12-19T10:23:22.811Z,972.25
2016-12-19T10:24:22.771Z,972.19
2016-12-19T10:25:22.733Z,972.18
2016-12-19T10:26:22.696Z,972.26
2016-12-19T10:27:22.658Z,972.26
2016-12-19T10:28:22.621Z,972.21
2016-12-19T10:29:22.582Z,972.3
2016-12-19T10:30:22.597Z,972.26
2016-12-19T10:31:22.509Z,972.25
2016-12-19T10:32:22.472Z,972.26
2016-12-19T10:33:22.435Z,972.3
2016-12-19T10:34:22.397Z,972.23
2016-12-19T10:35:22.361Z,972.23
2016-12-19T10:36:22.325Z,972.2
2016-12-19T10:37:22.288Z,972.24
2016-12-19T10:38:22.253Z,972.27
2016-12-19T10:39:22.215Z,972.27
2016-12-19T10:40:22.179Z,972.34
2016-12-19T10:41:22.144Z,972.26
2016-12-19T10:42:22.109Z,972.19
2016-12-19T10:43:22.074Z,972.17
2016-12-19T10:44:22.038Z,972.12
2016-12-19T10:45:22.004Z,972.13
2016-12-19T10:46:21.975Z,972.12
2016-12-19T10:47:21.931Z,972.11
2016-12-19T10:48:21.897Z,972.05
2016-12-19T10:49:21.863Z,972.08
2016-12-19T10:50:21.827Z,972.05
2016-12-19T10:51:21.792Z,972.07
2016-12-19T10:52:21.758Z,972.08
2016-12-19T10:53:21.725Z,972.15
2016-12-19T10:54:21.690Z,972.22
2016-12-19T10:55:21.656Z,972.17
2016-12-19T10:56:21.622Z,972.15
2016-12-19T10:57:21.588Z,972.25
2016-12-19T10:58:21.554Z,972.21
2016-12-19T10:59:21.520Z,972.23
2016-12-19T11:00:21.486Z,972.02
2016-12-19T11:01:21.452Z,971.98
2016-12-19T11:02:21.418Z,972.05
2016-12-19T11:03:21.385Z,972.02
2016-12-19T11:04:21.350Z,972.07
2016-12-19T11:05:21.317Z,972.07
2016-12-19T11:06:21.281Z,972.09
2016-12-19T11:07:21.250Z,972.03
2016-12-19T11:08:21.214Z,972.08
2016-12-19T11:09:21.179Z,972.04
2016-12-19T11:10:21.147Z,972.03
2016-12-19T11:11:21.111Z,972.04
2016-12-19T11:12:21.076Z,972.06
2016-12-19T11:13:21.040Z,972.02
2016-12-19T11:14:21.007Z,971.94
2016-12-19T11:15:20.971Z,971.97
2016-12-19T11:16:20.939Z,971.97
2016-12-19T11:17:20.901Z,971.98
2016-12-19T11:18:20.867Z,972
2016-12-19T11:19:20.831Z,972
2016-12-19T11:20:20.795Z,971.99
2016-12-19T11:21:20.760Z,971.95
2016-12-19T11:22:20.724Z,971.93
2016-12-19T11:23:20.689Z,971.93
2016-12-19T11:24:20.653Z,971.91
2016-12-19T11:25:20.619Z,971.87
2016-12-19T11:26:20.584Z,971.9
2016-12-19T11:27:20.547Z,971.97
2016-12-19T11:28:20.511Z,971.97
2016-12-19T11:29:20.476Z,971.95
2016-12-19T11:30:20.441Z,971.96
2016-12-19T11:31:20.406Z,971.96
2016-12-19T11:32:20.369Z,971.92
2016-12-19T11:33:20.334Z,971.89
2016-12-19T11:34:20.297Z,971.89
2016-12-19T11:35:20.262Z,971.92
2016-12-19T11:36:20.229Z,971.95
2016-12-19T11:37:20.192Z,971.99
2016-12-19T11:38:20.155Z,971.97
2016-12-19T11:39:20.120Z,971.94
2016-12-19T11:40:20.083Z,971.93
2016-12-19T11:41:20.048Z,971.91
2016-12-19T11:42:20.011Z,971.87
2016-12-19T11:43:19.976Z,971.89
2016-12-19T11:44:19.941Z,971.87
2016-12-19T11:45:19.904Z,971.87
2016-12-19T11:46:19.868Z,971.92
2016-12-19T11:47:19.834Z,971.84
2016-12-19T11:48:19.798Z,971.83
2016-12-19T11:49:19.761Z,971.84
2016-12-19T11:50:19.725Z,971.86
2016-12-19T11:51:19.689Z,971.84
2016-12-19T11:52:19.654Z,971.85
2016-12-19T11:53:19.616Z,971.8
2016-12-19T11:54:19.580Z,971.84
2016-12-19T11:55:19.544Z,971.83
2016-12-19T11:56:19.508Z,971.8
2016-12-19T11:57:19.469Z,971.76
2016-12-19T11:58:19.433Z,971.76
2016-12-19T11:59:19.396Z,971.72
2016-12-19T12:00:19.361Z,971.69
2016-12-19T12:01:19.321Z,971.72
2016-12-19T12:02:19.285Z,971.69
2016-12-19T12:03:19.249Z,971.68
2016-12-19T12:04:19.210Z,971.62
2016-12-19T12:05:19.172Z,971.58
2016-12-19T12:06:19.136Z,971.58
2016-12-19T12:07:19.097Z,971.5
2016-12-19T12:08:19.060Z,971.48
2016-12-19T12:09:19.022Z,971.42
2016-12-19T12:10:18.983Z,971.37
2016-12-19T12:11:18.946Z,971.32
2016-12-19T12:12:18.906Z,971.31
2016-12-19T12:13:18.867Z,971.28
2016-12-19T12:14:18.830Z,971.3
2016-12-19T12:15:18.791Z,971.31
2016-12-19T12:16:18.753Z,971.27
2016-12-19T12:17:18.715Z,971.29
2016-12-19T12:18:18.679Z,971.27
2016-12-19T12:19:18.636Z,971.28
2016-12-19T12:20:18.597Z,971.3
2016-12-19T12:21:18.559Z,971.26
2016-12-19T12:22:18.520Z,971.28
2016-12-19T12:23:18.481Z,971.24
2016-12-19T12:24:18.444Z,971.22
2016-12-19T12:25:18.405Z,971.26
2016-12-19T12:26:18.364Z,971.24
2016-12-19T12:27:18.327Z,971.21
2016-12-19T12:28:18.288Z,971.23
2016-12-19T12:29:18.249Z,971.22
2016-12-19T12:30:18.212Z,971.25
2016-12-19T12:31:18.171Z,971.28